Time;durP1;ratioP1;P1;durP2;ratioP2;P2;SDS_P1;SDS_P2;PMS_P1;PMS_P2;Temp;Humidity;BMP_temperature;BMP_pressure;BME280_temperature;BME280_humidity;BME280_pressure;Samples;Min_cycle;Max_cycle;Signal;HPM_P1;HPM_P2
2020/12/28 00:01:44;;;;;;;0.50;0.50;;;5.50;1.00;;;;;;4874578;29;20228;-74
2020/12/28 00:04:12;;;;;;;1.23;0.63;;;5.50;99.90;;;;;;4873520;29;20303;-76
2020/12/28 00:06:49;;;;;;;0.65;0.63;;;5.50;86.70;;;;;;4875701;29;20229;-74
2020/12/28 00:09:38;;;;;;;1.48;0.63;;;5.50;1.00;;;;;;4869814;29;20205;-73
2020/12/28 00:12:12;;;;;;;0.65;0.50;;;5.50;55.90;;;;;;4870856;29;20241;-73
2020/12/28 00:14:45;;;;;;;0.40;0.40;;;5.50;99.90;;;;;;4872183;29;20204;-73
2020/12/28 00:17:15;;;;;;;0.60;0.60;;;5.50;99.90;;;;;;4873799;29;20518;-73
2020/12/28 00:19:49;;;;;;;0.70;0.70;;;5.50;90.90;;;;;;4870640;29;20295;-73
2020/12/28 00:22:17;;;;;;;0.77;0.60;;;5.50;99.90;;;;;;4872569;29;20260;-78
2020/12/28 00:24:53;;;;;;;0.90;0.60;;;5.50;1.00;;;;;;4872986;29;21056;-76
2020/12/28 00:27:48;;;;;;;0.90;0.68;;;5.50;1.00;;;;;;4866511;29;20470;-76
2020/12/28 00:30:22;;;;;;;0.50;0.50;;;5.50;1.00;;;;;;4887154;29;20356;-74
2020/12/28 00:32:53;;;;;;;0.60;0.60;;;5.50;1.00;;;;;;4874607;29;20761;-74
2020/12/28 00:35:20;;;;;;;0.85;0.85;;;5.50;1.00;;;;;;4872783;29;20458;-73
2020/12/28 00:37:48;;;;;;;0.60;0.60;;;5.40;1.00;;;;;;4872587;29;20228;-74
2020/12/28 00:40:17;;;;;;;0.80;0.70;;;5.50;1.00;;;;;;4888415;29;20308;-73
2020/12/28 00:42:44;;;;;;;0.75;0.60;;;5.40;1.00;;;;;;4873628;29;20648;-74
2020/12/28 00:45:11;;;;;;;0.60;0.60;;;5.40;1.00;;;;;;4867886;29;20613;-76
2020/12/28 00:47:38;;;;;;;0.60;0.60;;;5.40;19.70;;;;;;4874769;29;20487;-74
2020/12/28 00:50:06;;;;;;;0.85;0.65;;;5.40;1.00;;;;;;4871064;29;20220;-76
2020/12/28 00:52:33;;;;;;;1.05;0.75;;;5.30;99.90;;;;;;4873868;29;20245;-74
2020/12/28 00:55:00;;;;;;;0.82;0.60;;;5.30;99.90;;;;;;4872056;29;20208;-74
2020/12/28 00:57:28;;;;;;;0.60;0.60;;;5.40;99.90;;;;;;4874675;29;20210;-73
2020/12/28 00:59:57;;;;;;;0.60;0.60;;;5.40;99.90;;;;;;4874482;29;20528;-74
2020/12/28 01:02:24;;;;;;;0.60;0.60;;;5.40;99.90;;;;;;4873740;29;20881;-74
2020/12/28 01:04:51;;;;;;;0.65;0.65;;;5.40;99.90;;;;;;4872142;29;20214;-73
2020/12/28 01:07:18;;;;;;;0.68;0.68;;;5.30;99.90;;;;;;4863131;29;20269;-75
2020/12/28 01:09:45;;;;;;;0.77;0.70;;;5.30;99.90;;;;;;4873890;29;20205;-72
2020/12/28 01:12:12;;;;;;;0.60;0.60;;;5.20;99.90;;;;;;4867384;29;20281;-78
2020/12/28 01:14:41;;;;;;;0.70;0.70;;;5.10;99.90;;;;;;4870129;29;20343;-73
2020/12/28 01:17:08;;;;;;;1.33;0.80;;;5.10;99.90;;;;;;4887971;29;20236;-76
2020/12/28 01:19:35;;;;;;;0.65;0.60;;;5.10;99.90;;;;;;4873726;29;20218;-72
2020/12/28 01:22:02;;;;;;;0.60;0.60;;;5.10;99.90;;;;;;4871933;29;20338;-73
2020/12/28 01:24:29;;;;;;;0.70;0.70;;;5.00;99.90;;;;;;4871646;29;20300;-75
2020/12/28 01:26:56;;;;;;;1.42;1.35;;;5.00;99.90;;;;;;4873953;29;20284;-73
2020/12/28 01:29:24;;;;;;;0.73;0.73;;;5.00;99.90;;;;;;4867559;29;20643;-76
2020/12/28 01:31:52;;;;;;;0.85;0.70;;;5.10;99.90;;;;;;4872854;29;20600;-73
2020/12/28 01:34:19;;;;;;;0.70;0.68;;;5.10;99.90;;;;;;4874870;29;20213;-73
2020/12/28 01:36:46;;;;;;;0.60;0.60;;;5.00;1.00;;;;;;4875346;29;20638;-74
2020/12/28 01:39:13;;;;;;;0.85;0.85;;;5.00;1.00;;;;;;4874399;29;20218;-73
2020/12/28 01:41:40;;;;;;;5.38;0.60;;;5.00;1.00;;;;;;4872561;29;20227;-74
2020/12/28 01:44:07;;;;;;;0.80;0.80;;;5.00;1.00;;;;;;4872695;29;20267;-75
2020/12/28 01:46:34;;;;;;;0.80;0.80;;;5.00;1.00;;;;;;4885705;29;20236;-76
2020/12/28 01:49:02;;;;;;;0.80;0.80;;;5.00;1.00;;;;;;4873557;29;20213;-80
2020/12/28 01:51:29;;;;;;;0.80;0.70;;;5.10;1.00;;;;;;4883112;29;20249;-75
2020/12/28 01:53:56;;;;;;;1.25;0.70;;;5.00;1.00;;;;;;4870608;29;20314;-76
2020/12/28 01:56:27;;;;;;;0.80;0.80;;;5.00;1.00;;;;;;4875781;29;20212;-76
2020/12/28 01:58:55;;;;;;;0.82;0.82;;;5.00;1.00;;;;;;4873527;29;20315;-78
2020/12/28 02:01:25;;;;;;;1.00;1.00;;;5.00;1.00;;;;;;4870711;29;20247;-73
2020/12/28 02:03:52;;;;;;;0.80;0.80;;;5.00;1.00;;;;;;4876524;29;20915;-73
2020/12/28 02:06:20;;;;;;;0.75;0.75;;;4.90;1.00;;;;;;4875657;29;20231;-74
2020/12/28 02:08:47;;;;;;;1.00;0.90;;;4.90;1.00;;;;;;4877040;29;20273;-74
2020/12/28 02:11:15;;;;;;;1.10;0.95;;;4.90;1.00;;;;;;4873263;29;21026;-75
2020/12/28 02:13:42;;;;;;;1.00;1.00;;;4.90;1.00;;;;;;4877724;29;20221;-75
2020/12/28 02:16:09;;;;;;;0.80;0.80;;;4.80;1.00;;;;;;4874079;29;20268;-76
2020/12/28 02:18:36;;;;;;;1.35;0.90;;;4.80;1.00;;;;;;4876533;29;20271;-74
2020/12/28 02:21:03;;;;;;;1.00;0.90;;;4.80;1.00;;;;;;4875537;29;20264;-78
2020/12/28 02:23:31;;;;;;;1.00;0.80;;;4.80;1.00;;;;;;4877837;29;20209;-73
2020/12/28 02:25:58;;;;;;;1.17;0.82;;;4.80;1.00;;;;;;4876403;29;20257;-76
2020/12/28 02:28:25;;;;;;;0.80;0.80;;;4.70;1.00;;;;;;4877062;29;20220;-73
2020/12/28 02:30:53;;;;;;;0.80;0.80;;;4.60;1.00;;;;;;4875501;29;20237;-76
2020/12/28 02:33:20;;;;;;;1.25;1.15;;;4.60;1.00;;;;;;4874355;29;20212;-74
2020/12/28 02:35:47;;;;;;;1.02;1.02;;;4.60;1.00;;;;;;4876638;29;20281;-73
2020/12/28 02:38:14;;;;;;;0.85;0.85;;;4.60;1.00;;;;;;4878727;29;20225;-75
2020/12/28 02:40:42;;;;;;;0.95;0.85;;;4.50;1.00;;;;;;4877358;29;20235;-73
2020/12/28 02:43:09;;;;;;;0.80;0.80;;;4.50;1.00;;;;;;4876853;29;20230;-75
2020/12/28 02:45:36;;;;;;;0.60;0.60;;;4.50;1.00;;;;;;4877539;29;20225;-73
2020/12/28 02:48:03;;;;;;;0.60;0.60;;;4.50;1.00;;;;;;4878959;29;20752;-74
2020/12/28 02:50:30;;;;;;;0.80;0.70;;;4.50;1.00;;;;;;4874607;29;20210;-74
2020/12/28 02:52:58;;;;;;;0.75;0.75;;;4.50;1.00;;;;;;4874912;29;20297;-74
2020/12/28 02:55:25;;;;;;;0.60;0.60;;;4.50;1.00;;;;;;4877532;29;20215;-75
2020/12/28 02:57:53;;;;;;;0.70;0.70;;;4.40;1.00;;;;;;4876904;29;20232;-74
2020/12/28 03:00:20;;;;;;;0.60;0.60;;;4.40;1.00;;;;;;4875617;29;20240;-75
2020/12/28 03:02:48;;;;;;;0.68;0.68;;;4.40;1.00;;;;;;4877398;29;20209;-74
2020/12/28 03:05:15;;;;;;;0.70;0.70;;;4.40;1.00;;;;;;4876581;29;20686;-77
2020/12/28 03:07:42;;;;;;;0.70;0.70;;;4.50;1.00;;;;;;4890416;29;20979;-73
2020/12/28 03:10:09;;;;;;;0.70;0.70;;;4.40;1.00;;;;;;4878903;29;20796;-74
2020/12/28 03:12:36;;;;;;;0.70;0.70;;;4.40;1.00;;;;;;4878100;29;20239;-75
2020/12/28 03:15:04;;;;;;;0.68;0.68;;;4.40;1.00;;;;;;4872061;29;20218;-73
2020/12/28 03:17:31;;;;;;;0.60;0.60;;;4.30;1.00;;;;;;4878172;29;20681;-74
2020/12/28 03:19:59;;;;;;;0.70;0.70;;;4.30;1.00;;;;;;4877410;29;20214;-74
2020/12/28 03:22:26;;;;;;;0.50;0.50;;;4.30;1.00;;;;;;4878320;29;20981;-76
2020/12/28 03:24:53;;;;;;;0.60;0.60;;;4.30;1.00;;;;;;4874943;29;20316;-74
2020/12/28 03:27:20;;;;;;;0.50;0.50;;;4.20;3.60;;;;;;4877377;29;20247;-76
2020/12/28 03:29:48;;;;;;;0.63;0.60;;;4.20;3.30;;;;;;4876920;29;20316;-75
2020/12/28 03:32:16;;;;;;;0.80;0.60;;;4.20;8.50;;;;;;4874159;29;20238;-75
2020/12/28 03:34:43;;;;;;;0.57;0.55;;;4.20;1.80;;;;;;4890709;29;20215;-75
2020/12/28 03:37:10;;;;;;;0.80;0.80;;;4.20;5.60;;;;;;4877945;29;20266;-75
2020/12/28 03:39:37;;;;;;;0.50;0.50;;;4.20;8.10;;;;;;4877686;29;20291;-76
2020/12/28 03:42:07;;;;;;;0.50;0.50;;;4.20;9.10;;;;;;4868116;29;20685;-76
2020/12/28 03:44:34;;;;;;;0.60;0.60;;;4.20;13.70;;;;;;4875981;29;20826;-74
2020/12/28 03:47:01;;;;;;;0.50;0.50;;;4.20;7.90;;;;;;4873393;29;20316;-76
2020/12/28 03:49:29;;;;;;;0.60;0.60;;;4.20;5.80;;;;;;4872969;29;20255;-74
2020/12/28 03:51:56;;;;;;;0.50;0.50;;;4.20;3.30;;;;;;4874831;29;20837;-75
2020/12/28 03:54:23;;;;;;;0.60;0.60;;;4.20;1.00;;;;;;4874368;29;21203;-80
2020/12/28 03:56:50;;;;;;;0.70;0.50;;;4.30;1.00;;;;;;4874401;29;20217;-77
2020/12/28 03:59:17;;;;;;;0.60;0.50;;;4.20;1.00;;;;;;4875018;29;20816;-78
2020/12/28 04:01:44;;;;;;;0.50;0.50;;;4.30;1.00;;;;;;4875023;29;20224;-75
2020/12/28 04:04:11;;;;;;;0.57;0.57;;;4.20;1.00;;;;;;4872364;29;20217;-75
2020/12/28 04:06:41;;;;;;;0.50;0.50;;;4.30;1.00;;;;;;4874416;29;20252;-78
2020/12/28 04:09:08;;;;;;;0.50;0.50;;;4.30;1.00;;;;;;4874677;29;20809;-75
2020/12/28 04:11:35;;;;;;;0.50;0.50;;;4.20;1.00;;;;;;4875785;29;20233;-75
2020/12/28 04:14:02;;;;;;;0.45;0.45;;;4.20;1.00;;;;;;4876087;29;20214;-76
2020/12/28 04:16:29;;;;;;;0.43;0.43;;;4.30;1.00;;;;;;4874964;29;20298;-75
2020/12/28 04:18:56;;;;;;;0.55;0.40;;;4.30;1.00;;;;;;4873579;29;20257;-74
2020/12/28 04:21:23;;;;;;;0.40;0.40;;;4.30;1.00;;;;;;4873592;29;20335;-74
2020/12/28 04:23:51;;;;;;;1.10;0.60;;;4.30;1.00;;;;;;4873667;29;20211;-75
2020/12/28 04:26:18;;;;;;;0.40;0.40;;;4.30;1.00;;;;;;4874760;29;20237;-73
2020/12/28 04:28:46;;;;;;;0.40;0.40;;;4.30;1.00;;;;;;4873936;29;20266;-74
2020/12/28 04:31:13;;;;;;;0.40;0.40;;;4.30;1.00;;;;;;4870082;29;20243;-75
2020/12/28 04:33:43;;;;;;;0.35;0.35;;;4.30;1.00;;;;;;4873544;29;20260;-73
2020/12/28 04:36:10;;;;;;;0.40;0.40;;;4.30;1.00;;;;;;4875139;29;20250;-74
2020/12/28 04:38:37;;;;;;;0.40;0.40;;;4.30;1.00;;;;;;4875310;29;20301;-75
2020/12/28 04:41:06;;;;;;;0.50;0.50;;;4.30;1.00;;;;;;4873575;29;21010;-73
2020/12/28 04:43:33;;;;;;;0.50;0.50;;;4.20;1.00;;;;;;4890296;29;20221;-74
2020/12/28 04:46:03;;;;;;;0.40;0.40;;;4.20;1.00;;;;;;4874832;29;20326;-75
2020/12/28 04:48:32;;;;;;;0.60;0.50;;;4.20;1.00;;;;;;4875777;29;20309;-75
2020/12/28 04:51:00;;;;;;;0.40;0.40;;;4.20;1.00;;;;;;4887239;29;20243;-74
2020/12/28 04:53:28;;;;;;;0.50;0.50;;;4.30;1.00;;;;;;4875765;29;20218;-74
2020/12/28 04:55:56;;;;;;;0.40;0.40;;;4.30;1.00;;;;;;4874449;29;20213;-75
2020/12/28 04:58:25;;;;;;;0.40;0.40;;;4.40;1.00;;;;;;4875601;29;20237;-74
2020/12/28 05:00:58;;;;;;;0.50;0.50;;;4.40;1.00;;;;;;4873321;29;20612;-78
2020/12/28 05:03:27;;;;;;;0.40;0.40;;;4.30;1.00;;;;;;4890350;29;20219;-74
2020/12/28 05:05:54;;;;;;;0.50;0.50;;;4.30;1.00;;;;;;4873019;29;20230;-74
2020/12/28 05:08:22;;;;;;;0.50;0.50;;;4.40;1.00;;;;;;4876536;29;20686;-75
2020/12/28 05:10:49;;;;;;;0.40;0.40;;;4.30;1.00;;;;;;4874944;29;20224;-74
2020/12/28 05:13:18;;;;;;;0.70;0.50;;;4.40;1.00;;;;;;4875497;29;20211;-77
2020/12/28 05:15:47;;;;;;;0.50;0.50;;;4.40;1.00;;;;;;4874399;29;20224;-75
2020/12/28 05:18:15;;;;;;;0.50;0.50;;;4.30;1.00;;;;;;4875861;29;20223;-74
2020/12/28 05:20:44;;;;;;;0.40;0.40;;;4.40;1.00;;;;;;4873236;29;20315;-75
2020/12/28 05:23:12;;;;;;;0.57;0.40;;;4.40;1.00;;;;;;4872955;29;20215;-80
2020/12/28 05:25:43;;;;;;;0.75;0.75;;;4.40;1.00;;;;;;4887558;29;20243;-74
2020/12/28 05:28:14;;;;;;;0.50;0.50;;;4.40;1.00;;;;;;4874737;29;20306;-75
2020/12/28 05:30:43;;;;;;;0.40;0.40;;;4.30;1.00;;;;;;4872242;29;20629;-75
2020/12/28 05:33:13;;;;;;;0.50;0.40;;;4.30;1.00;;;;;;4874526;29;20224;-74
2020/12/28 05:35:42;;;;;;;0.55;0.55;;;4.30;1.00;;;;;;4874402;29;20220;-74
2020/12/28 05:38:11;;;;;;;0.40;0.40;;;4.30;1.00;;;;;;4877811;29;20211;-75
2020/12/28 05:40:39;;;;;;;0.40;0.40;;;4.30;1.00;;;;;;4872692;29;20556;-76
2020/12/28 05:43:06;;;;;;;0.38;0.38;;;4.30;4.00;;;;;;4879661;29;20626;-75
2020/12/28 05:45:34;;;;;;;0.50;0.40;;;4.30;13.70;;;;;;4879102;29;20697;-76
2020/12/28 05:48:02;;;;;;;0.40;0.40;;;4.30;19.90;;;;;;4879543;29;20769;-75
2020/12/28 05:50:34;;;;;;;0.68;0.60;;;4.30;14.60;;;;;;4877079;29;20574;-75
2020/12/28 05:53:02;;;;;;;0.50;0.50;;;4.30;20.00;;;;;;4876288;29;20688;-76
2020/12/28 05:55:32;;;;;;;0.57;0.40;;;4.30;24.10;;;;;;4876171;29;20322;-74
2020/12/28 05:58:00;;;;;;;0.40;0.40;;;4.30;26.40;;;;;;4872319;29;20216;-75
2020/12/28 06:00:27;;;;;;;0.52;0.50;;;4.20;27.50;;;;;;4877692;29;20204;-76
2020/12/28 06:02:55;;;;;;;0.40;0.40;;;4.10;33.00;;;;;;4879575;29;20229;-76
2020/12/28 06:05:22;;;;;;;0.50;0.50;;;4.10;35.60;;;;;;4878282;29;20219;-76
2020/12/28 06:07:52;;;;;;;0.40;0.40;;;4.00;45.10;;;;;;4877063;29;20233;-75
2020/12/28 06:10:20;;;;;;;0.50;0.50;;;4.10;46.60;;;;;;4877195;29;20311;-75
2020/12/28 06:12:56;;;;;;;0.65;0.50;;;4.10;46.70;;;;;;4877708;29;20218;-75
2020/12/28 06:15:23;;;;;;;0.63;0.63;;;4.10;41.30;;;;;;4876144;29;20223;-76
2020/12/28 06:17:53;;;;;;;0.40;0.40;;;4.10;34.60;;;;;;4878825;29;20326;-75
2020/12/28 06:20:32;;;;;;;1.33;0.60;;;4.10;34.60;;;;;;4874018;29;20223;-74
2020/12/28 06:23:05;;;;;;;0.30;0.30;;;4.00;45.50;;;;;;4874887;29;20220;-76
2020/12/28 06:25:32;;;;;;;0.43;0.40;;;4.00;56.90;;;;;;4876652;29;20216;-78
2020/12/28 06:27:59;;;;;;;0.40;0.40;;;3.90;67.10;;;;;;4891464;29;20271;-75
2020/12/28 06:30:28;;;;;;;0.50;0.40;;;4.00;61.40;;;;;;4875434;29;20241;-75
2020/12/28 06:33:04;;;;;;;0.50;0.50;;;3.90;60.30;;;;;;4877503;29;20216;-75
2020/12/28 06:35:36;;;;;;;0.68;0.50;;;4.00;59.90;;;;;;4890425;29;20635;-75
2020/12/28 06:38:08;;;;;;;0.60;0.60;;;4.00;69.90;;;;;;4875625;29;20223;-74
2020/12/28 06:40:37;;;;;;;0.50;0.50;;;4.00;69.40;;;;;;4875783;29;20225;-74
2020/12/28 06:43:08;;;;;;;0.57;0.57;;;4.00;56.70;;;;;;4876102;29;20223;-74
2020/12/28 06:45:39;;;;;;;2.20;1.20;;;3.90;59.60;;;;;;4882242;29;20261;-75
2020/12/28 06:48:17;;;;;;;1.90;0.77;;;3.80;76.30;;;;;;4873722;29;20885;-73
2020/12/28 06:50:55;;;;;;;1.60;1.00;;;3.80;84.20;;;;;;4874301;29;20331;-76
2020/12/28 06:53:27;;;;;;;1.60;1.10;;;3.90;80.70;;;;;;4872600;29;20485;-75
2020/12/28 06:56:05;;;;;;;0.40;0.40;;;3.90;76.80;;;;;;4878639;29;20253;-75
2020/12/28 06:58:34;;;;;;;1.02;0.93;;;3.90;69.80;;;;;;4877723;29;20217;-75
2020/12/28 07:01:03;;;;;;;0.90;0.70;;;3.90;60.70;;;;;;4877075;29;20326;-73
2020/12/28 07:03:31;;;;;;;0.65;0.63;;;3.90;51.90;;;;;;4881610;29;20212;-72
2020/12/28 07:06:00;;;;;;;1.30;0.82;;;3.90;62.80;;;;;;4879371;29;20286;-73
2020/12/28 07:08:28;;;;;;;0.70;0.65;;;3.90;76.40;;;;;;4881841;29;20306;-72
2020/12/28 07:11:03;;;;;;;0.60;0.60;;;4.00;66.00;;;;;;4876216;29;20241;-73
2020/12/28 07:13:34;;;;;;;0.80;0.80;;;3.90;59.50;;;;;;4877798;29;20681;-74
2020/12/28 07:16:05;;;;;;;0.80;0.80;;;4.00;63.30;;;;;;4877248;29;20224;-73
2020/12/28 07:18:38;;;;;;;0.70;0.70;;;4.10;57.00;;;;;;4872992;29;20210;-77
2020/12/28 07:21:06;;;;;;;0.60;0.60;;;4.10;45.30;;;;;;4874709;29;20827;-72
2020/12/28 07:23:40;;;;;;;0.60;0.60;;;4.00;33.90;;;;;;4875859;29;20295;-74
2020/12/28 07:26:12;;;;;;;0.60;0.60;;;3.90;36.50;;;;;;4877035;29;20248;-72
2020/12/28 07:28:45;;;;;;;0.55;0.55;;;3.90;38.80;;;;;;4876790;29;20276;-72
2020/12/28 07:31:17;;;;;;;0.95;0.47;;;3.90;36.00;;;;;;4875765;29;20938;-73
2020/12/28 07:33:47;;;;;;;0.70;0.70;;;3.90;50.50;;;;;;4875904;29;20265;-74
2020/12/28 07:36:22;;;;;;;0.60;0.50;;;3.90;39.80;;;;;;4875943;29;20222;-76
2020/12/28 07:38:53;;;;;;;0.90;0.90;;;3.90;44.70;;;;;;4872901;29;20218;-75
2020/12/28 07:41:25;;;;;;;0.60;0.60;;;3.90;48.30;;;;;;4876516;29;20697;-74
2020/12/28 07:43:58;;;;;;;3.05;0.70;;;3.90;32.50;;;;;;4874298;29;20210;-73
2020/12/28 07:46:48;;;;;;;0.50;0.50;;;3.80;45.30;;;;;;4873821;29;20236;-76
2020/12/28 07:49:20;;;;;;;0.98;0.68;;;3.90;40.40;;;;;;4871771;29;20240;-72
2020/12/28 07:51:55;;;;;;;0.60;0.60;;;3.90;38.20;;;;;;4870565;29;20234;-74
2020/12/28 07:54:32;;;;;;;0.80;0.70;;;3.80;33.10;;;;;;4874330;29;20230;-74
2020/12/28 07:57:03;;;;;;;0.68;0.68;;;3.80;38.30;;;;;;4875983;29;20465;-74
2020/12/28 07:59:54;;;;;;;1.00;0.50;;;3.70;39.70;;;;;;4874718;29;20567;-80
2020/12/28 08:02:44;;;;;;;0.85;0.60;;;3.70;43.70;;;;;;4869980;29;20237;-72
2020/12/28 08:05:14;;;;;;;0.47;0.47;;;3.70;56.80;;;;;;4872436;29;20221;-72
2020/12/28 08:07:49;;;;;;;0.60;0.60;;;3.70;44.50;;;;;;4872393;29;20235;-72
2020/12/28 08:10:25;;;;;;;0.40;0.40;;;3.70;53.10;;;;;;4873595;29;20254;-73
2020/12/28 08:13:20;;;;;;;0.47;0.47;;;3.80;49.10;;;;;;4872847;29;20691;-73
2020/12/28 08:15:55;;;;;;;0.85;0.52;;;4.00;46.70;;;;;;4875694;29;20671;-74
2020/12/28 08:18:29;;;;;;;0.50;0.50;;;4.00;38.40;;;;;;4874541;29;20296;-72
2020/12/28 08:21:01;;;;;;;0.60;0.50;;;4.00;20.80;;;;;;4870048;29;20575;-75
2020/12/28 08:23:36;;;;;;;0.95;0.63;;;3.90;25.50;;;;;;4875729;29;20220;-74
2020/12/28 08:26:25;;;;;;;0.88;0.70;;;3.90;30.30;;;;;;4876998;29;20213;-73
2020/12/28 08:29:17;;;;;;;0.70;0.70;;;3.90;36.30;;;;;;4874347;29;20279;-74
2020/12/28 08:31:57;;;;;;;0.93;0.65;;;3.80;42.50;;;;;;4874915;29;20239;-75
2020/12/28 08:34:34;;;;;;;3.53;0.70;;;3.80;51.40;;;;;;4869131;29;20218;-71
2020/12/28 08:37:20;;;;;;;0.82;0.77;;;3.80;59.50;;;;;;4875873;29;20687;-72
2020/12/28 08:39:52;;;;;;;0.60;0.60;;;3.70;67.50;;;;;;4875146;29;20263;-72
2020/12/28 08:42:43;;;;;;;0.60;0.60;;;3.70;64.00;;;;;;4874501;29;20243;-73
2020/12/28 08:45:25;;;;;;;0.63;0.52;;;3.80;69.10;;;;;;4876137;29;20238;-74
2020/12/28 08:47:57;;;;;;;0.50;0.50;;;3.80;69.60;;;;;;4871362;29;20237;-71
2020/12/28 08:50:25;;;;;;;0.50;0.50;;;3.90;63.50;;;;;;4872879;29;20686;-73
2020/12/28 08:52:55;;;;;;;0.80;0.60;;;3.90;67.20;;;;;;4872998;29;20560;-72
2020/12/28 08:55:22;;;;;;;0.70;0.70;;;4.00;72.90;;;;;;4869600;29;20479;-72
2020/12/28 08:57:55;;;;;;;0.80;0.70;;;4.10;74.60;;;;;;4868957;29;20209;-71
2020/12/28 09:00:24;;;;;;;0.50;0.50;;;4.30;59.70;;;;;;4872365;29;20208;-71
2020/12/28 09:02:53;;;;;;;0.50;0.50;;;4.50;37.90;;;;;;4872650;29;20726;-72
2020/12/28 09:05:21;;;;;;;0.50;0.50;;;4.50;24.10;;;;;;4869763;29;20213;-72
2020/12/28 09:07:49;;;;;;;0.50;0.50;;;4.50;18.70;;;;;;4869428;29;20326;-71
2020/12/28 09:10:17;;;;;;;0.70;0.70;;;4.40;12.30;;;;;;4868954;29;20302;-73
2020/12/28 09:12:44;;;;;;;0.93;0.70;;;4.30;34.30;;;;;;4870030;29;20226;-71
2020/12/28 09:15:12;;;;;;;0.55;0.55;;;4.20;44.60;;;;;;4869810;29;20219;-72
2020/12/28 09:17:40;;;;;;;0.63;0.63;;;4.30;46.50;;;;;;4866989;29;20272;-74
2020/12/28 09:20:07;;;;;;;0.77;0.70;;;4.30;48.70;;;;;;4866589;29;20224;-70
2020/12/28 09:22:35;;;;;;;1.30;0.52;;;4.20;55.00;;;;;;4866343;29;20260;-71
2020/12/28 09:25:02;;;;;;;0.60;0.60;;;4.20;49.10;;;;;;4867149;29;20744;-72
2020/12/28 09:27:29;;;;;;;0.80;0.70;;;4.10;60.00;;;;;;4884843;29;20246;-70
2020/12/28 09:29:56;;;;;;;0.70;0.70;;;4.20;60.00;;;;;;4870096;29;20218;-73
2020/12/28 09:32:24;;;;;;;0.77;0.65;;;4.30;54.30;;;;;;4869752;29;20639;-75
2020/12/28 09:34:52;;;;;;;1.10;0.80;;;4.30;56.90;;;;;;4868277;29;22110;-71
2020/12/28 09:37:19;;;;;;;0.60;0.60;;;4.40;57.70;;;;;;4878745;29;20213;-71
2020/12/28 09:39:46;;;;;;;0.80;0.80;;;4.40;56.00;;;;;;4870894;29;20260;-73
2020/12/28 09:42:13;;;;;;;1.40;0.93;;;4.40;47.20;;;;;;4869499;29;20770;-71
2020/12/28 09:45:00;;;;;;;0.90;0.88;;;4.30;51.50;;;;;;4871649;29;20679;-71
2020/12/28 09:47:28;;;;;;;1.10;0.80;;;4.30;61.30;;;;;;4867558;29;20298;-71
2020/12/28 09:49:55;;;;;;;1.00;0.90;;;4.40;54.80;;;;;;4871062;29;20219;-67
2020/12/28 09:52:22;;;;;;;0.95;0.88;;;4.30;60.60;;;;;;4870121;29;20252;-72
2020/12/28 09:54:50;;;;;;;1.75;0.80;;;4.20;70.90;;;;;;4869874;29;20218;-71
2020/12/28 09:57:17;;;;;;;0.95;0.75;;;4.20;85.50;;;;;;4870361;29;20214;-73
2020/12/28 09:59:44;;;;;;;1.15;0.80;;;4.20;83.60;;;;;;4864751;29;20226;-73
2020/12/28 10:02:11;;;;;;;1.25;0.70;;;4.10;78.50;;;;;;4871406;29;20249;-71
2020/12/28 10:04:39;;;;;;;0.80;0.80;;;4.10;90.00;;;;;;4869577;29;20566;-70
2020/12/28 10:07:06;;;;;;;1.00;0.90;;;4.10;94.10;;;;;;4869406;29;20286;-71
2020/12/28 10:09:33;;;;;;;1.00;0.85;;;4.30;95.10;;;;;;4870642;29;20220;-73
2020/12/28 10:12:00;;;;;;;0.80;0.80;;;4.30;87.80;;;;;;4870013;29;20256;-70
2020/12/28 10:14:27;;;;;;;1.17;1.10;;;4.30;89.30;;;;;;4873734;29;20596;-71
2020/12/28 10:16:54;;;;;;;1.77;0.88;;;4.30;90.10;;;;;;4872337;29;20210;-70
2020/12/28 10:19:22;;;;;;;1.05;1.02;;;4.30;79.50;;;;;;4873790;29;20480;-71
2020/12/28 10:21:49;;;;;;;1.25;1.10;;;4.40;87.00;;;;;;4872520;29;20304;-72
2020/12/28 10:24:17;;;;;;;1.30;1.20;;;4.30;88.90;;;;;;4884599;29;20286;-70
2020/12/28 10:26:44;;;;;;;1.35;1.05;;;4.30;92.80;;;;;;4875920;29;20690;-72
2020/12/28 10:29:11;;;;;;;1.10;1.00;;;4.30;90.30;;;;;;4877018;29;20208;-70
2020/12/28 10:31:38;;;;;;;1.50;1.33;;;4.40;80.40;;;;;;4876771;29;20246;-70
2020/12/28 10:34:06;;;;;;;2.35;1.50;;;4.30;61.90;;;;;;4879406;29;20613;-71
2020/12/28 10:36:33;;;;;;;1.50;1.40;;;4.30;59.00;;;;;;4875696;29;20206;-71
2020/12/28 10:39:01;;;;;;;1.40;1.10;;;4.40;56.50;;;;;;4876395;29;20222;-72
2020/12/28 10:41:30;;;;;;;1.20;1.10;;;4.50;37.50;;;;;;4874970;29;20266;-71
2020/12/28 10:43:57;;;;;;;1.30;1.20;;;4.50;19.80;;;;;;4876274;29;20220;-73
2020/12/28 10:46:25;;;;;;;1.30;1.20;;;4.50;17.20;;;;;;4889508;29;20309;-74
2020/12/28 10:48:56;;;;;;;1.40;1.30;;;4.40;24.20;;;;;;4876046;29;20497;-70
2020/12/28 10:51:24;;;;;;;1.02;1.00;;;4.50;9.90;;;;;;4873460;29;20503;-71
2020/12/28 10:53:51;;;;;;;1.10;1.00;;;4.50;13.50;;;;;;4876191;29;20220;-69
2020/12/28 10:56:26;;;;;;;1.40;1.20;;;4.40;3.70;;;;;;4875548;29;20275;-69
2020/12/28 10:58:54;;;;;;;1.30;1.10;;;4.50;11.20;;;;;;4870361;29;20283;-69
2020/12/28 11:01:22;;;;;;;1.10;1.00;;;4.50;17.50;;;;;;4875474;29;20243;-70
2020/12/28 11:03:50;;;;;;;1.00;0.90;;;4.50;10.70;;;;;;4875403;29;20205;-73
2020/12/28 11:06:18;;;;;;;1.00;1.00;;;4.50;1.00;;;;;;4874636;29;20239;-71
2020/12/28 11:08:45;;;;;;;1.10;1.00;;;4.50;6.80;;;;;;4873667;29;20227;-69
2020/12/28 11:11:13;;;;;;;1.50;1.05;;;4.50;4.00;;;;;;4873439;29;20731;-70
2020/12/28 11:13:41;;;;;;;1.20;0.95;;;4.40;14.10;;;;;;4873709;29;20202;-70
2020/12/28 11:16:08;;;;;;;1.30;1.20;;;4.60;3.80;;;;;;4880884;29;20342;-70
2020/12/28 11:18:37;;;;;;;2.25;1.52;;;4.60;5.10;;;;;;4876133;29;20314;-70
2020/12/28 11:21:04;;;;;;;1.35;1.25;;;4.70;1.00;;;;;;4873245;29;20952;-71
2020/12/28 11:26:16;;;;;;;1.15;1.00;;;4.80;1.00;;;;;;4875056;29;20218;-70
2020/12/28 11:28:44;;;;;;;1.30;1.15;;;4.70;1.00;;;;;;4871247;29;20294;-71
2020/12/28 11:31:14;;;;;;;1.52;1.20;;;4.60;1.00;;;;;;4873528;29;20266;-72
2020/12/28 11:33:42;;;;;;;1.15;1.05;;;4.60;1.00;;;;;;4886263;29;20268;-70
2020/12/28 11:36:09;;;;;;;1.27;1.10;;;4.80;1.00;;;;;;4873972;29;20291;-71
2020/12/28 11:38:36;;;;;;;1.00;1.00;;;4.80;1.00;;;;;;4867480;29;20663;-70
2020/12/28 11:41:04;;;;;;;2.10;1.38;;;4.80;1.00;;;;;;4874538;29;20476;-71
2020/12/28 11:43:31;;;;;;;1.60;1.50;;;4.80;1.00;;;;;;4872830;29;20314;-70
2020/12/28 11:45:59;;;;;;;1.77;1.50;;;4.80;1.00;;;;;;4874995;29;20212;-71
2020/12/28 11:48:26;;;;;;;1.60;1.00;;;4.80;1.00;;;;;;4874419;29;22303;-72
2020/12/28 11:50:54;;;;;;;1.55;1.30;;;4.80;1.00;;;;;;4875831;29;20712;-71
2020/12/28 11:53:21;;;;;;;2.08;1.88;;;4.90;1.00;;;;;;4875424;29;20221;-71
2020/12/28 11:56:04;;;;;;;1.10;1.00;;;5.00;1.00;;;;;;4876384;29;20297;-71
2020/12/28 11:58:33;;;;;;;1.50;1.02;;;4.90;1.00;;;;;;4875395;29;20987;-70
2020/12/28 12:01:02;;;;;;;2.15;1.95;;;4.80;1.00;;;;;;4872961;29;20311;-72
2020/12/28 12:03:29;;;;;;;0.90;0.90;;;4.90;4.80;;;;;;4875139;29;20678;-69
2020/12/28 12:05:57;;;;;;;1.08;0.75;;;4.90;1.00;;;;;;4875595;29;20216;-71
2020/12/28 12:08:24;;;;;;;1.42;0.90;;;4.90;1.00;;;;;;4880101;29;20288;-72
2020/12/28 12:10:52;;;;;;;0.90;0.90;;;4.80;1.00;;;;;;4877046;29;20239;-70
2020/12/28 12:13:19;;;;;;;0.95;0.95;;;4.80;1.00;;;;;;4872400;29;20222;-71
2020/12/28 12:15:49;;;;;;;1.20;1.00;;;4.90;1.00;;;;;;4875687;29;20749;-71
2020/12/28 12:18:17;;;;;;;0.90;0.70;;;5.00;1.00;;;;;;4869908;29;20203;-70
2020/12/28 12:20:44;;;;;;;1.10;1.10;;;4.90;1.00;;;;;;4870000;29;20237;-71
2020/12/28 12:23:11;;;;;;;2.05;1.00;;;4.90;1.00;;;;;;4871343;29;20628;-70
2020/12/28 12:25:38;;;;;;;1.20;0.90;;;4.80;1.00;;;;;;4870517;29;20512;-70
2020/12/28 12:28:05;;;;;;;0.77;0.77;;;4.90;1.00;;;;;;4883332;29;20686;-70
2020/12/28 12:30:32;;;;;;;1.08;1.00;;;4.90;1.00;;;;;;4875008;29;20282;-71
2020/12/28 12:33:00;;;;;;;0.98;0.93;;;5.00;1.00;;;;;;4877314;29;20211;-70
2020/12/28 12:35:31;;;;;;;1.13;0.85;;;4.90;1.00;;;;;;4873669;29;20211;-70
2020/12/28 12:37:58;;;;;;;1.05;0.90;;;4.80;1.00;;;;;;4872707;29;20301;-71
2020/12/28 12:40:25;;;;;;;0.80;0.80;;;4.70;1.00;;;;;;4873156;29;20219;-71
2020/12/28 12:42:54;;;;;;;1.15;0.85;;;4.60;1.00;;;;;;4873397;29;20211;-73
2020/12/28 12:45:21;;;;;;;0.95;0.85;;;4.60;1.00;;;;;;4873131;29;20272;-70
2020/12/28 12:47:49;;;;;;;0.90;0.75;;;4.60;1.00;;;;;;4873338;29;20235;-70
2020/12/28 12:50:16;;;;;;;1.10;1.00;;;4.60;1.00;;;;;;4873956;29;20210;-73
2020/12/28 12:52:44;;;;;;;1.35;1.17;;;4.70;1.00;;;;;;4870513;29;20236;-70
2020/12/28 12:55:11;;;;;;;1.00;0.90;;;4.80;1.00;;;;;;4872982;29;20365;-70
2020/12/28 12:57:38;;;;;;;1.30;1.15;;;4.80;1.00;;;;;;4873048;29;20202;-72
2020/12/28 13:00:06;;;;;;;1.90;1.30;;;5.00;1.00;;;;;;4874375;29;20203;-70
2020/12/28 13:02:34;;;;;;;1.13;1.00;;;4.80;1.00;;;;;;4877462;29;20745;-71
2020/12/28 13:05:03;;;;;;;1.80;1.35;;;4.80;1.00;;;;;;4876777;29;20208;-70
2020/12/28 13:07:31;;;;;;;0.95;0.95;;;4.90;1.00;;;;;;4874560;29;20241;-71
2020/12/28 13:09:59;;;;;;;1.33;1.00;;;4.80;1.00;;;;;;4874385;29;20218;-70
2020/12/28 13:12:27;;;;;;;1.10;1.00;;;4.70;1.00;;;;;;4872128;29;20232;-70
2020/12/28 13:14:54;;;;;;;2.63;0.90;;;4.60;1.00;;;;;;4875435;29;20241;-71
2020/12/28 13:17:21;;;;;;;0.75;0.75;;;4.50;1.00;;;;;;4874264;29;20590;-73